ニース/コート・ダジュール の空港の天気 - METARとTAF

コート・ダジュール空港(ニース) ( LFMN / NCE ) - フランス ニース
飛行場実況気象(Metar)
観測時間09/23 14:38 CEST (09/23 12:38 UTC)
風向・風速東南東 3m/s
視程10km以上
天気現象
全天の4割程度の雲 雲底高度 610m
全天の4割程度の雲 雲底高度 1010m
気温20℃
湿度83%
気圧1020hPa
METARLFMN 231238Z 11006KT 9999 SCT020 SCT033 20/17 Q1020 NOSIG
過去の天気等 Google飛行場航空写真 Wunderground天気予報

過去48時間のMETAR

飛行場予報(TAF)
発表時間: 9/23 10:00 CEST (9/23 08:00 UTC)
予報対象時間: 23日11時 CEST ~ 24日17時 CEST
風向・風速南東 3m/s
視程10km以上
全天の4割程度の雲 雲底高度 300m
全天の8割程度の雲 雲底高度 760m
全天の8割程度の雲 雲底高度 1,220m
23日11時 CEST ~ 23日12時 CEST に一時的に
視程3,000m
天気現象弱い雨霧雨
23日18時 CEST ~ 23日20時 CEST に徐々に
風向・風速不定 2m/s
視程10km以上
なし
24日2時 CEST ~ 24日14時 CEST に 確率 40% で一時的に
全天の8割程度の雲 雲底高度 460m
24日9時 CEST ~ 24日11時 CEST に徐々に
風向・風速東 5m/s
24日15時 CEST ~ 24日17時 CEST に徐々に
視程10km以上
なし
TAF LFMN 230800Z 2309/2415 14005KT 9999 SCT010 BKN025 BKN040
TEMPO 2309/2310 3000 -RADZ
BECMG 2316/2318 VRB03KT CAVOK
PROB40 TEMPO 2400/2412 BKN015
BECMG 2407/2409 10010KT
BECMG 2413/2415 CAVOK